TSO935 URSS-ULLI
Flight info
| Callsign | TSO935 |
|---|---|
| Flight time | N/A |
| Altitude | 40000 |
| Route | ADNET1D ADNET W79 AMEPU A100 KL L91 KANON T748 PEPOR T611 TUKMO N50 NUDKO T561 ODATI T875 GENPA GENPA1B |
| Aircraft | B772/H-SDE2E3FGHIJ5LORVWXY/LB1D1 |
Departure
| Time | 2026-05-07 18:06 |
|---|---|
| Airport | Sochi International Airport (URSS) |
Arrival
| Time | N/A |
|---|---|
| Airport | Pulkovo Airport (ULLI) |
| Time | Latitude | Longitude | Altitude | Speed | Heading |
|---|---|---|---|---|---|
| 2026-05-07 17:16 | 43.44891 | 39.94530 | 59 ft | 0 kts | 298° |
| 2026-05-07 17:54 | 43.44890 | 39.94534 | 59 ft | 2 kts | 298° |
| 2026-05-07 17:54 | 43.44883 | 39.94552 | 58 ft | 2 kts | 300° |
| 2026-05-07 17:54 | 43.44875 | 39.94570 | 58 ft | 2 kts | 300° |
| 2026-05-07 17:54 | 43.44867 | 39.94588 | 57 ft | 2 kts | 299° |
| 2026-05-07 17:55 | 43.44860 | 39.94605 | 57 ft | 1 kts | 299° |
| 2026-05-07 17:55 | 43.44852 | 39.94618 | 57 ft | 2 kts | 338° |
| 2026-05-07 17:55 | 43.44838 | 39.94625 | 57 ft | 2 kts | 339° |
| 2026-05-07 17:55 | 43.44825 | 39.94633 | 57 ft | 2 kts | 336° |
| 2026-05-07 17:56 | 43.44811 | 39.94641 | 57 ft | 1 kts | 336° |
| 2026-05-07 17:56 | 43.44797 | 39.94648 | 57 ft | 2 kts | 354° |
| 2026-05-07 17:56 | 43.44783 | 39.94646 | 57 ft | 2 kts | 24° |
| 2026-05-07 17:56 | 43.44772 | 39.94635 | 57 ft | 2 kts | 52° |
| 2026-05-07 17:57 | 43.44766 | 39.94624 | 57 ft | 1 kts | 65° |
| 2026-05-07 17:57 | 43.44766 | 39.94622 | 57 ft | 0 kts | 65° |
| 2026-05-07 17:59 | 43.44768 | 39.94627 | 57 ft | 0 kts | 65° |
| 2026-05-07 17:59 | 43.44783 | 39.94672 | 57 ft | 11 kts | 64° |
| 2026-05-07 17:59 | 43.44830 | 39.94808 | 59 ft | 17 kts | 64° |
| 2026-05-07 18:00 | 43.44881 | 39.94960 | 60 ft | 17 kts | 64° |
| 2026-05-07 18:00 | 43.44935 | 39.95108 | 64 ft | 16 kts | 62° |
| 2026-05-07 18:00 | 43.44978 | 39.95226 | 71 ft | 11 kts | 64° |
| 2026-05-07 18:00 | 43.45006 | 39.95308 | 76 ft | 8 kts | 65° |
| 2026-05-07 18:01 | 43.45029 | 39.95377 | 78 ft | 7 kts | 65° |
| 2026-05-07 18:01 | 43.45052 | 39.95447 | 79 ft | 8 kts | 70° |
| 2026-05-07 18:01 | 43.45055 | 39.95485 | 79 ft | 0 kts | 102° |
| 2026-05-07 18:03 | 43.45054 | 39.95492 | 79 ft | 3 kts | 109° |
| 2026-05-07 18:04 | 43.45021 | 39.95538 | 78 ft | 10 kts | 148° |
| 2026-05-07 18:04 | 43.44950 | 39.95515 | 77 ft | 9 kts | 231° |
| 2026-05-07 18:04 | 43.44931 | 39.95469 | 77 ft | 0 kts | 245° |
| 2026-05-07 18:05 | 43.44924 | 39.95447 | 77 ft | 18 kts | 245° |
| 2026-05-07 18:05 | 43.44734 | 39.94890 | 62 ft | 108 kts | 245° |
| 2026-05-07 18:05 | 43.44310 | 39.93662 | 130 ft | 170 kts | 244° |
| 2026-05-07 18:06 | 43.43824 | 39.92215 | 958 ft | 169 kts | 252° |
| 2026-05-07 18:06 | 43.43628 | 39.90703 | 1970 ft | 163 kts | 263° |
| 2026-05-07 18:06 | 43.43489 | 39.89166 | 2661 ft | 167 kts | 263° |
| 2026-05-07 18:06 | 43.43350 | 39.87604 | 3376 ft | 168 kts | 268° |
| 2026-05-07 18:07 | 43.43431 | 39.85918 | 3849 ft | 185 kts | 281° |
| 2026-05-07 18:07 | 43.43984 | 39.84293 | 4370 ft | 199 kts | 305° |
| 2026-05-07 18:07 | 43.44850 | 39.82720 | 4957 ft | 216 kts | 308° |
| 2026-05-07 18:07 | 43.45802 | 39.81025 | 5676 ft | 231 kts | 308° |
| 2026-05-07 18:08 | 43.46798 | 39.79227 | 6375 ft | 247 kts | 308° |
| 2026-05-07 18:08 | 43.47875 | 39.77271 | 7082 ft | 263 kts | 308° |
| 2026-05-07 18:08 | 43.48994 | 39.75239 | 7811 ft | 276 kts | 308° |
| 2026-05-07 18:08 | 43.50160 | 39.73117 | 8741 ft | 281 kts | 308° |
| 2026-05-07 18:09 | 43.51339 | 39.70973 | 9615 ft | 286 kts | 308° |
| 2026-05-07 18:09 | 43.52527 | 39.68809 | 10386 ft | 292 kts | 308° |
| 2026-05-07 18:09 | 43.53785 | 39.66518 | 10920 ft | 309 kts | 308° |
| 2026-05-07 18:09 | 43.55110 | 39.64104 | 11461 ft | 325 kts | 309° |
| 2026-05-07 18:10 | 43.56513 | 39.61546 | 12010 ft | 341 kts | 309° |
| 2026-05-07 18:10 | 43.58014 | 39.58969 | 12566 ft | 355 kts | 315° |
| 2026-05-07 18:10 | 43.59860 | 39.56643 | 13105 ft | 368 kts | 324° |
| 2026-05-07 18:10 | 43.62032 | 39.54738 | 13662 ft | 379 kts | 335° |
| 2026-05-07 18:11 | 43.64496 | 39.53373 | 14429 ft | 384 kts | 346° |
| 2026-05-07 18:11 | 43.66244 | 39.52817 | 15023 ft | 386 kts | 353° |
| 2026-05-07 18:11 | 43.69814 | 39.52608 | 16205 ft | 388 kts | 6° |
| 2026-05-07 18:11 | 43.72451 | 39.53242 | 17083 ft | 391 kts | 17° |
| 2026-05-07 18:12 | 43.75038 | 39.54422 | 17922 ft | 395 kts | 21° |
| 2026-05-07 18:12 | 43.77627 | 39.55692 | 18804 ft | 399 kts | 21° |
| 2026-05-07 18:12 | 43.80222 | 39.56953 | 19621 ft | 403 kts | 21° |
| 2026-05-07 18:12 | 43.82896 | 39.58241 | 20421 ft | 409 kts | 21° |
| 2026-05-07 18:13 | 43.85589 | 39.59529 | 21193 ft | 415 kts | 21° |
| 2026-05-07 18:13 | 43.88312 | 39.60827 | 21983 ft | 419 kts | 21° |
| 2026-05-07 18:13 | 43.91072 | 39.62139 | 22785 ft | 423 kts | 21° |
| 2026-05-07 18:13 | 43.93868 | 39.63468 | 23569 ft | 428 kts | 21° |
| 2026-05-07 18:14 | 43.96708 | 39.64816 | 24318 ft | 432 kts | 21° |
| 2026-05-07 18:14 | 43.99541 | 39.66161 | 25067 ft | 437 kts | 21° |
| 2026-05-07 18:14 | 44.02419 | 39.67527 | 25802 ft | 440 kts | 21° |
| 2026-05-07 18:14 | 44.05329 | 39.68911 | 26514 ft | 444 kts | 22° |
| 2026-05-07 18:15 | 44.08248 | 39.70299 | 27182 ft | 448 kts | 22° |
| 2026-05-07 18:15 | 44.11185 | 39.71697 | 27882 ft | 450 kts | 22° |
| 2026-05-07 18:15 | 44.14179 | 39.73123 | 28578 ft | 453 kts | 22° |
| 2026-05-07 18:15 | 44.17155 | 39.74542 | 29192 ft | 456 kts | 23° |
| 2026-05-07 18:16 | 44.20186 | 39.75989 | 29802 ft | 459 kts | 23° |
| 2026-05-07 18:16 | 44.23239 | 39.77447 | 30543 ft | 459 kts | 23° |
| 2026-05-07 18:16 | 44.26220 | 39.78871 | 31464 ft | 454 kts | 23° |
| 2026-05-07 18:16 | 44.29221 | 39.80307 | 32327 ft | 450 kts | 23° |
| 2026-05-07 18:17 | 44.32163 | 39.81714 | 33079 ft | 448 kts | 22° |
| 2026-05-07 18:17 | 44.35204 | 39.82810 | 33732 ft | 452 kts | 15° |
| 2026-05-07 18:17 | 44.38301 | 39.83294 | 34368 ft | 457 kts | 7° |
| 2026-05-07 18:17 | 44.41499 | 39.83150 | 34915 ft | 460 kts | 359° |
| 2026-05-07 18:18 | 44.44684 | 39.82567 | 35316 ft | 461 kts | 356° |
| 2026-05-07 18:18 | 44.47836 | 39.81938 | 35592 ft | 464 kts | 356° |
| 2026-05-07 18:18 | 44.51039 | 39.81301 | 35833 ft | 467 kts | 356° |
| 2026-05-07 18:18 | 44.54271 | 39.80661 | 36186 ft | 468 kts | 355° |
| 2026-05-07 18:19 | 44.57444 | 39.80034 | 36651 ft | 468 kts | 355° |
| 2026-05-07 18:19 | 44.60691 | 39.79395 | 37041 ft | 469 kts | 355° |
| 2026-05-07 18:19 | 44.63905 | 39.78762 | 37411 ft | 470 kts | 354° |
| 2026-05-07 18:19 | 44.67126 | 39.78129 | 37829 ft | 469 kts | 354° |
| 2026-05-07 18:20 | 44.70352 | 39.77495 | 38260 ft | 468 kts | 353° |
| 2026-05-07 18:20 | 44.73563 | 39.76864 | 38627 ft | 468 kts | 353° |
| 2026-05-07 18:20 | 44.76790 | 39.76230 | 38956 ft | 469 kts | 353° |
| 2026-05-07 18:20 | 44.80011 | 39.75596 | 39231 ft | 470 kts | 353° |
| 2026-05-07 18:21 | 44.83247 | 39.74958 | 39489 ft | 471 kts | 353° |
| 2026-05-07 18:21 | 44.86485 | 39.74320 | 39762 ft | 472 kts | 353° |
| 2026-05-07 18:21 | 44.89695 | 39.73687 | 40074 ft | 471 kts | 353° |
| 2026-05-07 18:22 | 44.96225 | 39.72397 | 40164 ft | 474 kts | 353° |
| 2026-05-07 18:22 | 45.02726 | 39.71110 | 40166 ft | 470 kts | 353° |
| 2026-05-07 18:23 | 45.09169 | 39.69832 | 40154 ft | 469 kts | 353° |
| 2026-05-07 18:23 | 45.15636 | 39.68546 | 40163 ft | 470 kts | 353° |
| 2026-05-07 18:24 | 45.22080 | 39.67437 | 40150 ft | 468 kts | 359° |
| 2026-05-07 18:24 | 45.28527 | 39.67741 | 40155 ft | 469 kts | 3° |
| 2026-05-07 18:25 | 45.35035 | 39.68194 | 40156 ft | 469 kts | 3° |
| 2026-05-07 18:25 | 45.41541 | 39.68644 | 40165 ft | 469 kts | 4° |
| 2026-05-07 18:26 | 45.48043 | 39.69093 | 40144 ft | 467 kts | 3° |
| 2026-05-07 18:26 | 45.54510 | 39.69539 | 40152 ft | 468 kts | 3° |
| 2026-05-07 18:27 | 45.61001 | 39.69976 | 40148 ft | 467 kts | 3° |
| 2026-05-07 18:27 | 45.67462 | 39.70413 | 40145 ft | 466 kts | 3° |
| 2026-05-07 18:28 | 45.73920 | 39.70850 | 40149 ft | 466 kts | 3° |
| 2026-05-07 18:28 | 45.80386 | 39.71289 | 40148 ft | 467 kts | 3° |
| 2026-05-07 18:29 | 45.86839 | 39.71728 | 40149 ft | 465 kts | 3° |
| 2026-05-07 18:29 | 45.93320 | 39.72171 | 40147 ft | 466 kts | 3° |
| 2026-05-07 18:30 | 45.99757 | 39.72612 | 40140 ft | 464 kts | 3° |
| 2026-05-07 18:30 | 46.06189 | 39.73054 | 40136 ft | 466 kts | 3° |
| 2026-05-07 18:31 | 46.12688 | 39.73502 | 40139 ft | 467 kts | 3° |
| 2026-05-07 18:31 | 46.19077 | 39.73943 | 40141 ft | 465 kts | 3° |